sensor_id;sensor_type;location;lat;lon;timestamp;temperature;humidity
18658;DHT22;9458;50.942;5.074;2023-01-25T00:00:47;3.40;99.90
18658;DHT22;9458;50.942;5.074;2023-01-25T00:03:15;3.40;99.90
18658;DHT22;9458;50.942;5.074;2023-01-25T00:05:43;3.40;99.90
18658;DHT22;9458;50.942;5.074;2023-01-25T00:08:12;3.40;99.90
18658;DHT22;9458;50.942;5.074;2023-01-25T00:10:40;3.40;99.90
18658;DHT22;9458;50.942;5.074;2023-01-25T00:13:10;3.40;99.90
18658;DHT22;9458;50.942;5.074;2023-01-25T00:15:38;3.40;99.90
18658;DHT22;9458;50.942;5.074;2023-01-25T00:18:06;3.40;99.90
18658;DHT22;9458;50.942;5.074;2023-01-25T00:20:34;3.40;99.90
18658;DHT22;9458;50.942;5.074;2023-01-25T00:23:02;3.40;99.90
18658;DHT22;9458;50.942;5.074;2023-01-25T00:25:29;3.40;99.90
18658;DHT22;9458;50.942;5.074;2023-01-25T00:27:57;3.30;99.90
18658;DHT22;9458;50.942;5.074;2023-01-25T00:30:26;3.40;99.90
18658;DHT22;9458;50.942;5.074;2023-01-25T00:33:01;3.50;99.90
18658;DHT22;9458;50.942;5.074;2023-01-25T00:35:34;3.40;99.90
18658;DHT22;9458;50.942;5.074;2023-01-25T00:38:05;3.30;99.90
18658;DHT22;9458;50.942;5.074;2023-01-25T00:40:40;3.30;99.90
18658;DHT22;9458;50.942;5.074;2023-01-25T00:43:08;3.30;99.90
18658;DHT22;9458;50.942;5.074;2023-01-25T00:45:37;3.30;99.90
18658;DHT22;9458;50.942;5.074;2023-01-25T00:48:05;3.40;99.90
18658;DHT22;9458;50.942;5.074;2023-01-25T00:50:35;3.30;99.90
18658;DHT22;9458;50.942;5.074;2023-01-25T00:53:04;3.40;99.90
18658;DHT22;9458;50.942;5.074;2023-01-25T00:55:32;3.40;99.90
18658;DHT22;9458;50.942;5.074;2023-01-25T00:57:59;3.30;99.90
18658;DHT22;9458;50.942;5.074;2023-01-25T01:00:26;3.40;99.90
18658;DHT22;9458;50.942;5.074;2023-01-25T01:02:59;3.30;99.90
18658;DHT22;9458;50.942;5.074;2023-01-25T01:05:36;3.30;99.90
18658;DHT22;9458;50.942;5.074;2023-01-25T01:08:05;3.40;99.90
18658;DHT22;9458;50.942;5.074;2023-01-25T01:10:38;3.40;99.90
18658;DHT22;9458;50.942;5.074;2023-01-25T01:13:06;3.30;99.90
18658;DHT22;9458;50.942;5.074;2023-01-25T01:15:37;3.40;99.90
18658;DHT22;9458;50.942;5.074;2023-01-25T01:18:07;3.40;99.90
18658;DHT22;9458;50.942;5.074;2023-01-25T01:20:35;3.30;99.90
18658;DHT22;9458;50.942;5.074;2023-01-25T01:23:04;3.30;99.90
18658;DHT22;9458;50.942;5.074;2023-01-25T01:25:32;3.30;99.90
18658;DHT22;9458;50.942;5.074;2023-01-25T01:28:01;3.40;99.90
18658;DHT22;9458;50.942;5.074;2023-01-25T01:30:29;3.40;99.90
18658;DHT22;9458;50.942;5.074;2023-01-25T01:32:59;3.40;99.90
18658;DHT22;9458;50.942;5.074;2023-01-25T01:35:29;3.40;99.90
18658;DHT22;9458;50.942;5.074;2023-01-25T01:37:57;3.40;99.90
18658;DHT22;9458;50.942;5.074;2023-01-25T01:40:26;3.30;99.90
18658;DHT22;9458;50.942;5.074;2023-01-25T01:43:00;3.30;99.90
18658;DHT22;9458;50.942;5.074;2023-01-25T01:45:49;3.30;99.90
18658;DHT22;9458;50.942;5.074;2023-01-25T01:48:26;3.30;99.90
18658;DHT22;9458;50.942;5.074;2023-01-25T01:51:02;3.30;99.90
18658;DHT22;9458;50.942;5.074;2023-01-25T01:53:31;3.30;99.90
18658;DHT22;9458;50.942;5.074;2023-01-25T01:56:05;3.30;99.90
18658;DHT22;9458;50.942;5.074;2023-01-25T01:58:35;3.30;99.90
18658;DHT22;9458;50.942;5.074;2023-01-25T02:01:04;3.30;99.90
18658;DHT22;9458;50.942;5.074;2023-01-25T02:03:32;3.30;99.90
18658;DHT22;9458;50.942;5.074;2023-01-25T02:06:12;3.30;99.90
18658;DHT22;9458;50.942;5.074;2023-01-25T02:08:44;3.30;99.90
18658;DHT22;9458;50.942;5.074;2023-01-25T02:11:13;3.40;99.90
18658;DHT22;9458;50.942;5.074;2023-01-25T02:13:41;3.30;99.90
18658;DHT22;9458;50.942;5.074;2023-01-25T02:16:14;3.30;99.90
18658;DHT22;9458;50.942;5.074;2023-01-25T02:18:43;3.40;99.90
18658;DHT22;9458;50.942;5.074;2023-01-25T02:21:12;3.30;99.90
18658;DHT22;9458;50.942;5.074;2023-01-25T02:23:44;3.30;99.90
18658;DHT22;9458;50.942;5.074;2023-01-25T02:26:17;3.30;99.90
18658;DHT22;9458;50.942;5.074;2023-01-25T02:28:49;3.40;99.90
18658;DHT22;9458;50.942;5.074;2023-01-25T02:31:17;3.30;99.90
18658;DHT22;9458;50.942;5.074;2023-01-25T02:33:46;3.30;99.90
18658;DHT22;9458;50.942;5.074;2023-01-25T02:36:20;3.30;99.90
18658;DHT22;9458;50.942;5.074;2023-01-25T02:38:52;3.30;99.90
18658;DHT22;9458;50.942;5.074;2023-01-25T02:41:26;3.40;99.90
18658;DHT22;9458;50.942;5.074;2023-01-25T02:43:57;3.30;99.90
18658;DHT22;9458;50.942;5.074;2023-01-25T02:46:26;3.30;99.90
18658;DHT22;9458;50.942;5.074;2023-01-25T02:48:55;3.30;99.90
18658;DHT22;9458;50.942;5.074;2023-01-25T02:51:25;3.30;99.90
18658;DHT22;9458;50.942;5.074;2023-01-25T02:53:54;3.30;99.90
18658;DHT22;9458;50.942;5.074;2023-01-25T02:56:24;3.20;99.90
18658;DHT22;9458;50.942;5.074;2023-01-25T02:58:52;3.20;99.90
18658;DHT22;9458;50.942;5.074;2023-01-25T03:01:21;3.20;99.90
18658;DHT22;9458;50.942;5.074;2023-01-25T03:03:54;3.30;99.90
18658;DHT22;9458;50.942;5.074;2023-01-25T03:06:22;3.20;99.90
18658;DHT22;9458;50.942;5.074;2023-01-25T03:08:49;3.20;99.90
18658;DHT22;9458;50.942;5.074;2023-01-25T03:11:16;3.20;99.90
18658;DHT22;9458;50.942;5.074;2023-01-25T03:13:46;3.10;99.90
18658;DHT22;9458;50.942;5.074;2023-01-25T03:16:13;3.20;99.90
18658;DHT22;9458;50.942;5.074;2023-01-25T03:18:42;3.20;99.90
18658;DHT22;9458;50.942;5.074;2023-01-25T03:21:11;3.20;99.90
18658;DHT22;9458;50.942;5.074;2023-01-25T03:23:40;3.20;99.90
18658;DHT22;9458;50.942;5.074;2023-01-25T03:26:09;3.20;99.90
18658;DHT22;9458;50.942;5.074;2023-01-25T03:28:39;3.20;99.90
18658;DHT22;9458;50.942;5.074;2023-01-25T03:31:10;3.20;99.90
18658;DHT22;9458;50.942;5.074;2023-01-25T03:33:38;3.20;99.90
18658;DHT22;9458;50.942;5.074;2023-01-25T03:36:07;3.30;99.90
18658;DHT22;9458;50.942;5.074;2023-01-25T03:38:35;3.20;99.90
18658;DHT22;9458;50.942;5.074;2023-01-25T03:41:03;3.20;99.90
18658;DHT22;9458;50.942;5.074;2023-01-25T03:43:31;3.20;99.90
18658;DHT22;9458;50.942;5.074;2023-01-25T03:46:00;3.20;99.90
18658;DHT22;9458;50.942;5.074;2023-01-25T03:48:29;3.30;99.90
18658;DHT22;9458;50.942;5.074;2023-01-25T03:50:58;3.20;99.90
18658;DHT22;9458;50.942;5.074;2023-01-25T03:53:27;3.20;99.90
18658;DHT22;9458;50.942;5.074;2023-01-25T03:55:56;3.30;99.90
18658;DHT22;9458;50.942;5.074;2023-01-25T03:58:25;3.20;99.90
18658;DHT22;9458;50.942;5.074;2023-01-25T04:00:54;3.20;99.90
18658;DHT22;9458;50.942;5.074;2023-01-25T04:03:22;3.30;99.90
18658;DHT22;9458;50.942;5.074;2023-01-25T04:05:52;3.20;99.90
18658;DHT22;9458;50.942;5.074;2023-01-25T04:08:20;3.20;99.90
18658;DHT22;9458;50.942;5.074;2023-01-25T04:10:50;3.20;99.90
18658;DHT22;9458;50.942;5.074;2023-01-25T04:13:24;3.20;99.90
18658;DHT22;9458;50.942;5.074;2023-01-25T04:15:52;3.30;99.90
18658;DHT22;9458;50.942;5.074;2023-01-25T04:18:20;3.30;99.90
18658;DHT22;9458;50.942;5.074;2023-01-25T04:20:53;3.30;99.90
18658;DHT22;9458;50.942;5.074;2023-01-25T04:23:22;3.30;99.90
18658;DHT22;9458;50.942;5.074;2023-01-25T04:25:53;3.30;99.90
18658;DHT22;9458;50.942;5.074;2023-01-25T04:28:20;3.30;99.90
18658;DHT22;9458;50.942;5.074;2023-01-25T04:30:48;3.30;99.90
18658;DHT22;9458;50.942;5.074;2023-01-25T04:33:16;3.20;99.90
18658;DHT22;9458;50.942;5.074;2023-01-25T04:35:45;3.20;99.90
18658;DHT22;9458;50.942;5.074;2023-01-25T04:38:14;3.20;99.90
18658;DHT22;9458;50.942;5.074;2023-01-25T04:40:43;3.20;99.90
18658;DHT22;9458;50.942;5.074;2023-01-25T04:43:12;3.20;99.90
18658;DHT22;9458;50.942;5.074;2023-01-25T04:45:40;3.20;99.90
18658;DHT22;9458;50.942;5.074;2023-01-25T04:48:10;3.20;99.90
18658;DHT22;9458;50.942;5.074;2023-01-25T04:50:41;3.20;99.90
18658;DHT22;9458;50.942;5.074;2023-01-25T04:53:10;3.20;99.90
18658;DHT22;9458;50.942;5.074;2023-01-25T04:55:42;3.30;99.90
18658;DHT22;9458;50.942;5.074;2023-01-25T04:58:10;3.30;99.90
18658;DHT22;9458;50.942;5.074;2023-01-25T05:00:38;3.30;99.90
18658;DHT22;9458;50.942;5.074;2023-01-25T05:03:05;3.30;99.90
18658;DHT22;9458;50.942;5.074;2023-01-25T05:05:33;3.30;99.90
18658;DHT22;9458;50.942;5.074;2023-01-25T05:08:01;3.30;99.90
18658;DHT22;9458;50.942;5.074;2023-01-25T05:10:28;3.30;99.90
18658;DHT22;9458;50.942;5.074;2023-01-25T05:12:57;3.30;99.90
18658;DHT22;9458;50.942;5.074;2023-01-25T05:15:25;3.20;99.90
18658;DHT22;9458;50.942;5.074;2023-01-25T05:17:52;3.30;99.90
18658;DHT22;9458;50.942;5.074;2023-01-25T05:20:20;3.20;99.90
18658;DHT22;9458;50.942;5.074;2023-01-25T05:22:48;3.30;99.90
18658;DHT22;9458;50.942;5.074;2023-01-25T05:25:16;3.30;99.90
18658;DHT22;9458;50.942;5.074;2023-01-25T05:28:05;3.30;99.90
18658;DHT22;9458;50.942;5.074;2023-01-25T05:30:33;3.30;99.90
18658;DHT22;9458;50.942;5.074;2023-01-25T05:33:00;3.30;99.90
18658;DHT22;9458;50.942;5.074;2023-01-25T05:35:28;3.30;99.90
18658;DHT22;9458;50.942;5.074;2023-01-25T05:37:56;3.30;99.90
18658;DHT22;9458;50.942;5.074;2023-01-25T05:40:24;3.30;99.90
18658;DHT22;9458;50.942;5.074;2023-01-25T05:42:53;3.30;99.90
18658;DHT22;9458;50.942;5.074;2023-01-25T05:45:22;3.30;99.90
18658;DHT22;9458;50.942;5.074;2023-01-25T05:47:53;3.30;99.90
18658;DHT22;9458;50.942;5.074;2023-01-25T05:50:21;3.30;99.90
18658;DHT22;9458;50.942;5.074;2023-01-25T05:52:50;3.40;99.90
18658;DHT22;9458;50.942;5.074;2023-01-25T05:55:18;3.30;99.90
18658;DHT22;9458;50.942;5.074;2023-01-25T05:57:46;3.30;99.90
18658;DHT22;9458;50.942;5.074;2023-01-25T06:00:15;3.30;99.90
18658;DHT22;9458;50.942;5.074;2023-01-25T06:02:44;3.30;99.90
18658;DHT22;9458;50.942;5.074;2023-01-25T06:05:12;3.30;99.90
18658;DHT22;9458;50.942;5.074;2023-01-25T06:07:40;3.30;99.90
18658;DHT22;9458;50.942;5.074;2023-01-25T06:10:09;3.20;99.90
18658;DHT22;9458;50.942;5.074;2023-01-25T06:12:37;3.20;99.90
18658;DHT22;9458;50.942;5.074;2023-01-25T06:15:07;3.20;99.90
18658;DHT22;9458;50.942;5.074;2023-01-25T06:17:37;3.20;99.90
18658;DHT22;9458;50.942;5.074;2023-01-25T06:20:08;3.20;99.90
18658;DHT22;9458;50.942;5.074;2023-01-25T06:22:39;3.20;99.90
18658;DHT22;9458;50.942;5.074;2023-01-25T06:25:07;3.20;99.90
18658;DHT22;9458;50.942;5.074;2023-01-25T06:27:35;3.20;99.90
18658;DHT22;9458;50.942;5.074;2023-01-25T06:30:03;3.30;99.90
18658;DHT22;9458;50.942;5.074;2023-01-25T06:32:32;3.30;99.90
18658;DHT22;9458;50.942;5.074;2023-01-25T06:35:01;3.30;99.90
18658;DHT22;9458;50.942;5.074;2023-01-25T06:37:31;3.20;99.90
18658;DHT22;9458;50.942;5.074;2023-01-25T06:39:58;3.20;99.90
18658;DHT22;9458;50.942;5.074;2023-01-25T06:42:26;3.30;99.90
18658;DHT22;9458;50.942;5.074;2023-01-25T06:44:56;3.20;99.90
18658;DHT22;9458;50.942;5.074;2023-01-25T06:47:24;3.20;99.90
18658;DHT22;9458;50.942;5.074;2023-01-25T06:49:53;3.30;99.90
18658;DHT22;9458;50.942;5.074;2023-01-25T06:52:20;3.30;99.90
18658;DHT22;9458;50.942;5.074;2023-01-25T06:54:50;3.30;99.90
18658;DHT22;9458;50.942;5.074;2023-01-25T06:57:19;3.30;99.90
18658;DHT22;9458;50.942;5.074;2023-01-25T06:59:47;3.30;99.90
18658;DHT22;9458;50.942;5.074;2023-01-25T07:02:14;3.30;99.90
18658;DHT22;9458;50.942;5.074;2023-01-25T07:04:44;3.30;99.90
18658;DHT22;9458;50.942;5.074;2023-01-25T07:07:13;3.30;99.90
18658;DHT22;9458;50.942;5.074;2023-01-25T07:09:41;3.30;99.90
18658;DHT22;9458;50.942;5.074;2023-01-25T07:12:12;3.30;99.90
18658;DHT22;9458;50.942;5.074;2023-01-25T07:14:40;3.30;99.90
18658;DHT22;9458;50.942;5.074;2023-01-25T07:17:08;3.30;99.90
18658;DHT22;9458;50.942;5.074;2023-01-25T07:19:36;3.20;99.90
18658;DHT22;9458;50.942;5.074;2023-01-25T07:22:03;3.20;99.90
18658;DHT22;9458;50.942;5.074;2023-01-25T07:24:32;3.30;99.90
18658;DHT22;9458;50.942;5.074;2023-01-25T07:27:00;3.30;99.90
18658;DHT22;9458;50.942;5.074;2023-01-25T07:29:32;3.30;99.90
18658;DHT22;9458;50.942;5.074;2023-01-25T07:31:59;3.30;99.90
18658;DHT22;9458;50.942;5.074;2023-01-25T07:34:28;3.30;99.90
18658;DHT22;9458;50.942;5.074;2023-01-25T07:36:56;3.30;99.90
18658;DHT22;9458;50.942;5.074;2023-01-25T07:39:23;3.30;99.90
18658;DHT22;9458;50.942;5.074;2023-01-25T07:41:51;3.30;99.90
18658;DHT22;9458;50.942;5.074;2023-01-25T07:44:19;3.20;99.90
18658;DHT22;9458;50.942;5.074;2023-01-25T07:46:48;3.20;99.90
18658;DHT22;9458;50.942;5.074;2023-01-25T07:49:16;3.20;99.90
18658;DHT22;9458;50.942;5.074;2023-01-25T07:51:44;3.20;99.90
18658;DHT22;9458;50.942;5.074;2023-01-25T07:54:11;3.10;99.90
18658;DHT22;9458;50.942;5.074;2023-01-25T07:56:39;3.10;99.90
18658;DHT22;9458;50.942;5.074;2023-01-25T07:59:06;3.10;99.90
18658;DHT22;9458;50.942;5.074;2023-01-25T08:01:38;3.10;99.90
18658;DHT22;9458;50.942;5.074;2023-01-25T08:04:09;3.10;99.90
18658;DHT22;9458;50.942;5.074;2023-01-25T08:06:37;3.20;99.90
18658;DHT22;9458;50.942;5.074;2023-01-25T08:09:07;3.20;99.90
18658;DHT22;9458;50.942;5.074;2023-01-25T08:11:36;3.20;99.90
18658;DHT22;9458;50.942;5.074;2023-01-25T08:14:04;3.20;99.90
18658;DHT22;9458;50.942;5.074;2023-01-25T08:16:33;3.20;99.90
18658;DHT22;9458;50.942;5.074;2023-01-25T08:19:02;3.20;99.90
18658;DHT22;9458;50.942;5.074;2023-01-25T08:21:34;3.20;99.90
18658;DHT22;9458;50.942;5.074;2023-01-25T08:24:04;3.20;99.90
18658;DHT22;9458;50.942;5.074;2023-01-25T08:26:32;3.20;99.90
18658;DHT22;9458;50.942;5.074;2023-01-25T08:29:00;3.20;99.90
18658;DHT22;9458;50.942;5.074;2023-01-25T08:31:31;3.20;99.90
18658;DHT22;9458;50.942;5.074;2023-01-25T08:34:00;3.20;99.90
18658;DHT22;9458;50.942;5.074;2023-01-25T08:36:28;3.20;99.90
18658;DHT22;9458;50.942;5.074;2023-01-25T08:39:00;3.20;99.90
18658;DHT22;9458;50.942;5.074;2023-01-25T08:41:29;3.20;99.90
18658;DHT22;9458;50.942;5.074;2023-01-25T08:43:58;3.20;99.90
18658;DHT22;9458;50.942;5.074;2023-01-25T08:46:28;3.10;99.90
18658;DHT22;9458;50.942;5.074;2023-01-25T08:48:56;3.10;99.90
18658;DHT22;9458;50.942;5.074;2023-01-25T08:51:25;3.20;99.90
18658;DHT22;9458;50.942;5.074;2023-01-25T08:53:53;3.20;99.90
18658;DHT22;9458;50.942;5.074;2023-01-25T08:56:22;3.20;99.90
18658;DHT22;9458;50.942;5.074;2023-01-25T08:58:50;3.20;99.90
18658;DHT22;9458;50.942;5.074;2023-01-25T09:01:18;3.20;99.90
18658;DHT22;9458;50.942;5.074;2023-01-25T09:03:48;3.20;99.90
18658;DHT22;9458;50.942;5.074;2023-01-25T09:06:17;3.20;99.90
18658;DHT22;9458;50.942;5.074;2023-01-25T09:08:45;3.20;99.90
18658;DHT22;9458;50.942;5.074;2023-01-25T09:11:15;3.20;99.90
18658;DHT22;9458;50.942;5.074;2023-01-25T09:13:45;3.20;99.90
18658;DHT22;9458;50.942;5.074;2023-01-25T09:16:14;3.20;99.90
18658;DHT22;9458;50.942;5.074;2023-01-25T09:18:43;3.30;99.90
18658;DHT22;9458;50.942;5.074;2023-01-25T09:21:15;3.20;99.90
18658;DHT22;9458;50.942;5.074;2023-01-25T09:23:46;3.20;99.90
18658;DHT22;9458;50.942;5.074;2023-01-25T09:26:14;3.20;99.90
18658;DHT22;9458;50.942;5.074;2023-01-25T09:28:47;3.20;99.90
18658;DHT22;9458;50.942;5.074;2023-01-25T09:31:17;3.30;99.90
18658;DHT22;9458;50.942;5.074;2023-01-25T09:33:45;3.30;99.90
18658;DHT22;9458;50.942;5.074;2023-01-25T09:36:13;3.30;99.90
18658;DHT22;9458;50.942;5.074;2023-01-25T09:38:41;3.30;99.90
18658;DHT22;9458;50.942;5.074;2023-01-25T09:41:25;3.30;99.90
18658;DHT22;9458;50.942;5.074;2023-01-25T09:44:17;3.30;99.90
18658;DHT22;9458;50.942;5.074;2023-01-25T09:46:49;3.30;99.90
18658;DHT22;9458;50.942;5.074;2023-01-25T09:49:34;3.40;99.90
18658;DHT22;9458;50.942;5.074;2023-01-25T09:52:19;3.30;99.90
18658;DHT22;9458;50.942;5.074;2023-01-25T09:54:55;3.40;99.90
18658;DHT22;9458;50.942;5.074;2023-01-25T09:57:27;3.40;99.90
18658;DHT22;9458;50.942;5.074;2023-01-25T10:00:00;3.40;99.90
18658;DHT22;9458;50.942;5.074;2023-01-25T10:02:37;3.40;99.90
18658;DHT22;9458;50.942;5.074;2023-01-25T10:05:10;3.40;99.90
18658;DHT22;9458;50.942;5.074;2023-01-25T10:07:51;3.40;99.90
18658;DHT22;9458;50.942;5.074;2023-01-25T10:10:25;3.40;99.90
18658;DHT22;9458;50.942;5.074;2023-01-25T10:12:56;3.40;99.90
18658;DHT22;9458;50.942;5.074;2023-01-25T10:15:29;3.40;99.90
18658;DHT22;9458;50.942;5.074;2023-01-25T10:18:02;3.40;99.90
18658;DHT22;9458;50.942;5.074;2023-01-25T10:20:36;3.40;99.90
18658;DHT22;9458;50.942;5.074;2023-01-25T10:23:47;3.40;99.90
18658;DHT22;9458;50.942;5.074;2023-01-25T10:26:21;3.40;99.90
18658;DHT22;9458;50.942;5.074;2023-01-25T10:28:55;3.40;99.90
18658;DHT22;9458;50.942;5.074;2023-01-25T10:31:31;3.40;99.90
18658;DHT22;9458;50.942;5.074;2023-01-25T10:34:01;3.40;99.90
18658;DHT22;9458;50.942;5.074;2023-01-25T10:36:38;3.40;99.90
18658;DHT22;9458;50.942;5.074;2023-01-25T10:39:09;3.40;99.90
18658;DHT22;9458;50.942;5.074;2023-01-25T10:41:38;3.40;99.90
18658;DHT22;9458;50.942;5.074;2023-01-25T10:44:11;3.40;99.90
18658;DHT22;9458;50.942;5.074;2023-01-25T10:46:56;3.40;99.90
18658;DHT22;9458;50.942;5.074;2023-01-25T10:49:37;3.40;99.90
18658;DHT22;9458;50.942;5.074;2023-01-25T10:52:16;3.30;99.90
18658;DHT22;9458;50.942;5.074;2023-01-25T10:54:44;3.40;99.90
18658;DHT22;9458;50.942;5.074;2023-01-25T10:57:15;3.30;99.90
18658;DHT22;9458;50.942;5.074;2023-01-25T10:59:45;3.40;99.90
18658;DHT22;9458;50.942;5.074;2023-01-25T11:02:39;3.40;99.90
18658;DHT22;9458;50.942;5.074;2023-01-25T11:05:25;3.30;99.90
18658;DHT22;9458;50.942;5.074;2023-01-25T11:07:54;3.30;99.90
18658;DHT22;9458;50.942;5.074;2023-01-25T11:10:31;3.30;99.90
18658;DHT22;9458;50.942;5.074;2023-01-25T11:13:26;3.30;99.90
18658;DHT22;9458;50.942;5.074;2023-01-25T11:16:14;3.30;99.90
18658;DHT22;9458;50.942;5.074;2023-01-25T11:18:51;3.30;99.90
18658;DHT22;9458;50.942;5.074;2023-01-25T11:21:30;3.30;99.90
18658;DHT22;9458;50.942;5.074;2023-01-25T11:24:01;3.30;99.90
18658;DHT22;9458;50.942;5.074;2023-01-25T11:26:31;3.30;99.90
18658;DHT22;9458;50.942;5.074;2023-01-25T11:29:11;3.30;99.90
18658;DHT22;9458;50.942;5.074;2023-01-25T11:31:41;3.20;99.90
18658;DHT22;9458;50.942;5.074;2023-01-25T11:34:14;3.40;99.90
18658;DHT22;9458;50.942;5.074;2023-01-25T11:37:03;3.30;99.90
18658;DHT22;9458;50.942;5.074;2023-01-25T11:39:45;3.30;99.90
18658;DHT22;9458;50.942;5.074;2023-01-25T11:42:26;3.30;99.90
18658;DHT22;9458;50.942;5.074;2023-01-25T11:48:25;3.40;99.90
18658;DHT22;9458;50.942;5.074;2023-01-25T11:51:01;3.30;99.90
18658;DHT22;9458;50.942;5.074;2023-01-25T11:53:44;3.40;99.90
18658;DHT22;9458;50.942;5.074;2023-01-25T11:56:19;3.40;99.90
18658;DHT22;9458;50.942;5.074;2023-01-25T11:59:08;3.40;99.90
18658;DHT22;9458;50.942;5.074;2023-01-25T12:01:59;3.40;99.90
18658;DHT22;9458;50.942;5.074;2023-01-25T12:04:51;3.40;99.90
18658;DHT22;9458;50.942;5.074;2023-01-25T12:07:33;3.40;99.90
18658;DHT22;9458;50.942;5.074;2023-01-25T12:10:19;3.30;99.90
18658;DHT22;9458;50.942;5.074;2023-01-25T12:12:55;3.40;99.90
18658;DHT22;9458;50.942;5.074;2023-01-25T12:15:35;3.30;99.90
18658;DHT22;9458;50.942;5.074;2023-01-25T12:21:05;3.30;99.90
18658;DHT22;9458;50.942;5.074;2023-01-25T12:23:51;3.30;99.90
18658;DHT22;9458;50.942;5.074;2023-01-25T12:26:27;3.40;99.90
18658;DHT22;9458;50.942;5.074;2023-01-25T12:29:01;3.40;99.90
18658;DHT22;9458;50.942;5.074;2023-01-25T12:31:36;3.40;99.90
18658;DHT22;9458;50.942;5.074;2023-01-25T12:34:09;3.40;99.90
18658;DHT22;9458;50.942;5.074;2023-01-25T12:36:42;3.40;99.90
18658;DHT22;9458;50.942;5.074;2023-01-25T12:39:17;3.40;99.90
18658;DHT22;9458;50.942;5.074;2023-01-25T12:41:49;3.40;99.90
18658;DHT22;9458;50.942;5.074;2023-01-25T12:44:21;3.40;99.90
18658;DHT22;9458;50.942;5.074;2023-01-25T12:46:55;3.40;99.90
18658;DHT22;9458;50.942;5.074;2023-01-25T12:49:28;3.40;99.90
18658;DHT22;9458;50.942;5.074;2023-01-25T12:52:00;3.50;99.90
18658;DHT22;9458;50.942;5.074;2023-01-25T12:54:37;3.50;99.90
18658;DHT22;9458;50.942;5.074;2023-01-25T12:57:15;3.50;99.90
18658;DHT22;9458;50.942;5.074;2023-01-25T12:59:53;3.40;99.90
18658;DHT22;9458;50.942;5.074;2023-01-25T13:02:45;3.40;99.90
18658;DHT22;9458;50.942;5.074;2023-01-25T13:05:21;3.40;99.90
18658;DHT22;9458;50.942;5.074;2023-01-25T13:07:58;3.40;99.90
18658;DHT22;9458;50.942;5.074;2023-01-25T13:10:32;3.40;99.90
18658;DHT22;9458;50.942;5.074;2023-01-25T13:13:22;3.40;99.90
18658;DHT22;9458;50.942;5.074;2023-01-25T13:15:51;3.40;99.90
18658;DHT22;9458;50.942;5.074;2023-01-25T13:18:36;3.40;99.90
18658;DHT22;9458;50.942;5.074;2023-01-25T13:21:09;3.30;99.90
18658;DHT22;9458;50.942;5.074;2023-01-25T13:23:38;3.30;99.90
18658;DHT22;9458;50.942;5.074;2023-01-25T13:26:41;3.40;99.90
18658;DHT22;9458;50.942;5.074;2023-01-25T13:35:39;3.40;99.90
18658;DHT22;9458;50.942;5.074;2023-01-25T13:38:31;3.30;99.90
18658;DHT22;9458;50.942;5.074;2023-01-25T13:41:12;3.30;99.90
18658;DHT22;9458;50.942;5.074;2023-01-25T13:43:47;3.30;99.90
18658;DHT22;9458;50.942;5.074;2023-01-25T13:46:18;3.30;99.90
18658;DHT22;9458;50.942;5.074;2023-01-25T13:48:58;3.40;99.90
18658;DHT22;9458;50.942;5.074;2023-01-25T13:51:33;3.40;99.90
18658;DHT22;9458;50.942;5.074;2023-01-25T13:54:03;3.40;99.90
18658;DHT22;9458;50.942;5.074;2023-01-25T13:56:33;3.40;99.90
18658;DHT22;9458;50.942;5.074;2023-01-25T13:59:03;3.40;99.90
18658;DHT22;9458;50.942;5.074;2023-01-25T14:01:33;3.50;99.90
18658;DHT22;9458;50.942;5.074;2023-01-25T14:04:03;3.40;99.90
18658;DHT22;9458;50.942;5.074;2023-01-25T14:06:33;3.40;99.90
18658;DHT22;9458;50.942;5.074;2023-01-25T14:09:04;3.30;99.90
18658;DHT22;9458;50.942;5.074;2023-01-25T14:11:41;3.30;99.90
18658;DHT22;9458;50.942;5.074;2023-01-25T14:14:24;3.30;99.90
18658;DHT22;9458;50.942;5.074;2023-01-25T14:17:10;3.30;99.90
18658;DHT22;9458;50.942;5.074;2023-01-25T14:19:43;3.30;99.90
18658;DHT22;9458;50.942;5.074;2023-01-25T14:22:31;3.30;99.90
18658;DHT22;9458;50.942;5.074;2023-01-25T14:25:18;3.30;99.90
18658;DHT22;9458;50.942;5.074;2023-01-25T14:28:00;3.30;99.90
18658;DHT22;9458;50.942;5.074;2023-01-25T14:30:42;3.20;99.90
18658;DHT22;9458;50.942;5.074;2023-01-25T14:33:17;3.20;99.90
18658;DHT22;9458;50.942;5.074;2023-01-25T14:35:53;3.20;99.90
18658;DHT22;9458;50.942;5.074;2023-01-25T14:38:29;3.20;99.90
18658;DHT22;9458;50.942;5.074;2023-01-25T14:41:02;3.20;99.90
18658;DHT22;9458;50.942;5.074;2023-01-25T14:43:35;3.20;99.90
18658;DHT22;9458;50.942;5.074;2023-01-25T14:46:20;3.20;99.90
18658;DHT22;9458;50.942;5.074;2023-01-25T14:48:48;3.20;99.90
18658;DHT22;9458;50.942;5.074;2023-01-25T14:51:25;3.20;99.90
18658;DHT22;9458;50.942;5.074;2023-01-25T14:54:00;3.20;99.90
18658;DHT22;9458;50.942;5.074;2023-01-25T14:56:39;3.20;99.90
18658;DHT22;9458;50.942;5.074;2023-01-25T14:59:22;3.20;99.90
18658;DHT22;9458;50.942;5.074;2023-01-25T15:01:56;3.20;99.90
18658;DHT22;9458;50.942;5.074;2023-01-25T15:04:34;3.20;99.90
18658;DHT22;9458;50.942;5.074;2023-01-25T15:07:02;3.20;99.90
18658;DHT22;9458;50.942;5.074;2023-01-25T15:09:35;3.20;99.90
18658;DHT22;9458;50.942;5.074;2023-01-25T15:12:05;3.20;99.90
18658;DHT22;9458;50.942;5.074;2023-01-25T15:14:48;3.10;99.90
18658;DHT22;9458;50.942;5.074;2023-01-25T15:17:38;3.20;99.90
18658;DHT22;9458;50.942;5.074;2023-01-25T15:20:24;3.10;99.90
18658;DHT22;9458;50.942;5.074;2023-01-25T15:22:52;3.10;99.90
18658;DHT22;9458;50.942;5.074;2023-01-25T15:25:20;3.10;99.90
18658;DHT22;9458;50.942;5.074;2023-01-25T15:27:48;3.10;99.90
18658;DHT22;9458;50.942;5.074;2023-01-25T15:30:17;3.10;99.90
18658;DHT22;9458;50.942;5.074;2023-01-25T15:32:47;3.00;99.90
18658;DHT22;9458;50.942;5.074;2023-01-25T15:35:18;3.10;99.90
18658;DHT22;9458;50.942;5.074;2023-01-25T15:37:48;3.00;99.90
18658;DHT22;9458;50.942;5.074;2023-01-25T15:40:16;3.00;99.90
18658;DHT22;9458;50.942;5.074;2023-01-25T15:42:44;3.00;99.90
18658;DHT22;9458;50.942;5.074;2023-01-25T15:45:11;2.90;99.90
18658;DHT22;9458;50.942;5.074;2023-01-25T15:47:40;3.00;99.90
18658;DHT22;9458;50.942;5.074;2023-01-25T15:50:16;3.00;99.90
18658;DHT22;9458;50.942;5.074;2023-01-25T15:52:46;2.90;99.90
18658;DHT22;9458;50.942;5.074;2023-01-25T15:55:14;2.90;99.90
18658;DHT22;9458;50.942;5.074;2023-01-25T15:57:42;2.90;99.90
18658;DHT22;9458;50.942;5.074;2023-01-25T16:00:16;2.90;99.90
18658;DHT22;9458;50.942;5.074;2023-01-25T16:02:49;2.80;99.90
18658;DHT22;9458;50.942;5.074;2023-01-25T16:05:18;2.80;99.90
18658;DHT22;9458;50.942;5.074;2023-01-25T16:07:47;2.90;99.90
18658;DHT22;9458;50.942;5.074;2023-01-25T16:10:21;2.80;99.90
18658;DHT22;9458;50.942;5.074;2023-01-25T16:12:49;2.80;99.90
18658;DHT22;9458;50.942;5.074;2023-01-25T16:15:17;2.90;99.90
18658;DHT22;9458;50.942;5.074;2023-01-25T16:17:45;2.90;99.90
18658;DHT22;9458;50.942;5.074;2023-01-25T16:20:18;2.90;99.90
18658;DHT22;9458;50.942;5.074;2023-01-25T16:22:46;2.90;99.90
18658;DHT22;9458;50.942;5.074;2023-01-25T16:25:15;2.90;99.90
18658;DHT22;9458;50.942;5.074;2023-01-25T16:27:50;2.90;99.90
18658;DHT22;9458;50.942;5.074;2023-01-25T16:34:34;2.80;99.90
18658;DHT22;9458;50.942;5.074;2023-01-25T16:37:08;2.80;99.90
18658;DHT22;9458;50.942;5.074;2023-01-25T16:39:39;2.80;99.90
18658;DHT22;9458;50.942;5.074;2023-01-25T16:42:08;2.80;99.90
18658;DHT22;9458;50.942;5.074;2023-01-25T16:44:37;2.80;99.90
18658;DHT22;9458;50.942;5.074;2023-01-25T16:47:05;2.80;99.90
18658;DHT22;9458;50.942;5.074;2023-01-25T16:49:34;2.80;99.90